sensor_id;sensor_type;location;lat;lon;timestamp;P1;durP1;ratioP1;P2;durP2;ratioP2
81703;SDS011;71117;52.352;4.808;2023-08-24T00:01:02;9.93;;;3.85;;
81703;SDS011;71117;52.352;4.808;2023-08-24T00:03:28;7.57;;;3.05;;
81703;SDS011;71117;52.352;4.808;2023-08-24T00:05:53;7.03;;;3.08;;
81703;SDS011;71117;52.352;4.808;2023-08-24T00:08:19;8.43;;;3.17;;
81703;SDS011;71117;52.352;4.808;2023-08-24T00:10:44;5.57;;;2.83;;
81703;SDS011;71117;52.352;4.808;2023-08-24T00:13:11;5.50;;;2.88;;
81703;SDS011;71117;52.352;4.808;2023-08-24T00:15:37;5.80;;;2.95;;
81703;SDS011;71117;52.352;4.808;2023-08-24T00:18:04;8.13;;;3.33;;
81703;SDS011;71117;52.352;4.808;2023-08-24T00:20:30;6.07;;;3.20;;
81703;SDS011;71117;52.352;4.808;2023-08-24T00:22:57;3.20;;;2.65;;
81703;SDS011;71117;52.352;4.808;2023-08-24T00:25:23;4.05;;;2.75;;
81703;SDS011;71117;52.352;4.808;2023-08-24T00:27:49;7.53;;;2.92;;
81703;SDS011;71117;52.352;4.808;2023-08-24T00:30:14;3.17;;;2.35;;
81703;SDS011;71117;52.352;4.808;2023-08-24T00:32:40;6.00;;;2.30;;
81703;SDS011;71117;52.352;4.808;2023-08-24T00:35:05;4.82;;;2.05;;
81703;SDS011;71117;52.352;4.808;2023-08-24T00:37:32;3.30;;;2.03;;
81703;SDS011;71117;52.352;4.808;2023-08-24T00:40:00;4.63;;;1.75;;
81703;SDS011;71117;52.352;4.808;2023-08-24T00:45:04;4.45;;;1.63;;
81703;SDS011;71117;52.352;4.808;2023-08-24T00:47:30;5.05;;;1.65;;
81703;SDS011;71117;52.352;4.808;2023-08-24T00:49:56;2.92;;;1.75;;
81703;SDS011;71117;52.352;4.808;2023-08-24T00:52:21;4.15;;;1.55;;
81703;SDS011;71117;52.352;4.808;2023-08-24T00:54:47;4.18;;;2.00;;
81703;SDS011;71117;52.352;4.808;2023-08-24T00:57:12;5.25;;;2.15;;
81703;SDS011;71117;52.352;4.808;2023-08-24T00:59:38;5.57;;;2.05;;
81703;SDS011;71117;52.352;4.808;2023-08-24T01:02:04;2.30;;;1.58;;
81703;SDS011;71117;52.352;4.808;2023-08-24T01:04:30;4.28;;;2.00;;
81703;SDS011;71117;52.352;4.808;2023-08-24T01:06:55;4.85;;;1.88;;
81703;SDS011;71117;52.352;4.808;2023-08-24T01:09:21;5.05;;;2.17;;
81703;SDS011;71117;52.352;4.808;2023-08-24T01:16:58;8.80;;;2.78;;
81703;SDS011;71117;52.352;4.808;2023-08-24T01:19:40;3.15;;;2.28;;
81703;SDS011;71117;52.352;4.808;2023-08-24T01:22:08;4.50;;;2.45;;
81703;SDS011;71117;52.352;4.808;2023-08-24T01:24:40;7.13;;;2.75;;
81703;SDS011;71117;52.352;4.808;2023-08-24T01:27:11;5.45;;;2.40;;
81703;SDS011;71117;52.352;4.808;2023-08-24T01:29:37;8.65;;;2.90;;
81703;SDS011;71117;52.352;4.808;2023-08-24T01:32:05;6.47;;;3.08;;
81703;SDS011;71117;52.352;4.808;2023-08-24T01:34:36;4.93;;;3.20;;
81703;SDS011;71117;52.352;4.808;2023-08-24T01:37:02;6.78;;;2.80;;
81703;SDS011;71117;52.352;4.808;2023-08-24T01:39:35;9.13;;;2.80;;
81703;SDS011;71117;52.352;4.808;2023-08-24T01:42:18;8.35;;;3.03;;
81703;SDS011;71117;52.352;4.808;2023-08-24T01:44:47;7.00;;;3.22;;
81703;SDS011;71117;52.352;4.808;2023-08-24T01:47:15;8.63;;;3.30;;
81703;SDS011;71117;52.352;4.808;2023-08-24T01:49:42;6.68;;;3.55;;
81703;SDS011;71117;52.352;4.808;2023-08-24T01:52:08;7.63;;;4.03;;
81703;SDS011;71117;52.352;4.808;2023-08-24T01:54:35;6.45;;;3.03;;
81703;SDS011;71117;52.352;4.808;2023-08-24T01:57:01;7.57;;;3.38;;
81703;SDS011;71117;52.352;4.808;2023-08-24T01:59:26;4.65;;;3.10;;
81703;SDS011;71117;52.352;4.808;2023-08-24T02:01:52;8.70;;;4.07;;
81703;SDS011;71117;52.352;4.808;2023-08-24T02:04:17;9.10;;;3.75;;
81703;SDS011;71117;52.352;4.808;2023-08-24T02:06:42;8.88;;;3.83;;
81703;SDS011;71117;52.352;4.808;2023-08-24T02:09:08;8.52;;;4.00;;
81703;SDS011;71117;52.352;4.808;2023-08-24T02:11:33;7.05;;;4.55;;
81703;SDS011;71117;52.352;4.808;2023-08-24T02:13:58;4.70;;;3.85;;
81703;SDS011;71117;52.352;4.808;2023-08-24T02:16:24;8.02;;;4.70;;
81703;SDS011;71117;52.352;4.808;2023-08-24T02:18:49;8.95;;;4.75;;
81703;SDS011;71117;52.352;4.808;2023-08-24T02:21:14;10.13;;;3.92;;
81703;SDS011;71117;52.352;4.808;2023-08-24T02:23:41;6.32;;;3.75;;
81703;SDS011;71117;52.352;4.808;2023-08-24T02:26:06;8.02;;;4.60;;
81703;SDS011;71117;52.352;4.808;2023-08-24T02:28:33;7.30;;;3.92;;
81703;SDS011;71117;52.352;4.808;2023-08-24T02:31:02;9.30;;;4.82;;
81703;SDS011;71117;52.352;4.808;2023-08-24T02:33:28;10.50;;;5.70;;
81703;SDS011;71117;52.352;4.808;2023-08-24T02:35:54;7.65;;;4.82;;
81703;SDS011;71117;52.352;4.808;2023-08-24T02:38:20;10.85;;;4.68;;
81703;SDS011;71117;52.352;4.808;2023-08-24T02:40:45;7.30;;;4.97;;
81703;SDS011;71117;52.352;4.808;2023-08-24T02:43:11;9.32;;;5.07;;
81703;SDS011;71117;52.352;4.808;2023-08-24T02:45:37;11.60;;;5.47;;
81703;SDS011;71117;52.352;4.808;2023-08-24T02:48:02;8.23;;;5.18;;
81703;SDS011;71117;52.352;4.808;2023-08-24T02:50:28;7.45;;;4.82;;
81703;SDS011;71117;52.352;4.808;2023-08-24T02:52:54;11.68;;;5.60;;
81703;SDS011;71117;52.352;4.808;2023-08-24T02:55:19;11.00;;;5.13;;
81703;SDS011;71117;52.352;4.808;2023-08-24T02:57:45;7.63;;;4.70;;
81703;SDS011;71117;52.352;4.808;2023-08-24T03:00:10;12.68;;;5.95;;
81703;SDS011;71117;52.352;4.808;2023-08-24T03:02:38;12.38;;;5.55;;
81703;SDS011;71117;52.352;4.808;2023-08-24T03:05:04;9.55;;;5.55;;
81703;SDS011;71117;52.352;4.808;2023-08-24T03:07:30;9.30;;;5.60;;
81703;SDS011;71117;52.352;4.808;2023-08-24T03:09:55;10.40;;;5.70;;
81703;SDS011;71117;52.352;4.808;2023-08-24T03:12:20;13.52;;;6.22;;
81703;SDS011;71117;52.352;4.808;2023-08-24T03:14:46;14.00;;;6.32;;
81703;SDS011;71117;52.352;4.808;2023-08-24T03:17:11;13.77;;;7.30;;
81703;SDS011;71117;52.352;4.808;2023-08-24T03:19:36;8.50;;;5.72;;
81703;SDS011;71117;52.352;4.808;2023-08-24T03:22:02;13.85;;;6.80;;
81703;SDS011;71117;52.352;4.808;2023-08-24T03:24:27;10.68;;;6.35;;
81703;SDS011;71117;52.352;4.808;2023-08-24T03:26:52;10.18;;;6.22;;
81703;SDS011;71117;52.352;4.808;2023-08-24T03:29:18;14.82;;;8.45;;
81703;SDS011;71117;52.352;4.808;2023-08-24T03:31:43;11.68;;;7.53;;
81703;SDS011;71117;52.352;4.808;2023-08-24T03:34:08;11.52;;;7.50;;
81703;SDS011;71117;52.352;4.808;2023-08-24T03:36:34;13.57;;;7.13;;
81703;SDS011;71117;52.352;4.808;2023-08-24T03:38:59;12.27;;;6.28;;
81703;SDS011;71117;52.352;4.808;2023-08-24T03:41:24;13.98;;;7.32;;
81703;SDS011;71117;52.352;4.808;2023-08-24T03:43:50;13.18;;;6.90;;
81703;SDS011;71117;52.352;4.808;2023-08-24T03:46:15;17.00;;;8.50;;
81703;SDS011;71117;52.352;4.808;2023-08-24T03:48:40;13.43;;;7.63;;
81703;SDS011;71117;52.352;4.808;2023-08-24T03:51:06;14.13;;;7.80;;
81703;SDS011;71117;52.352;4.808;2023-08-24T03:53:33;12.57;;;6.95;;
81703;SDS011;71117;52.352;4.808;2023-08-24T03:55:59;14.35;;;7.30;;
81703;SDS011;71117;52.352;4.808;2023-08-24T03:58:24;15.52;;;8.02;;
81703;SDS011;71117;52.352;4.808;2023-08-24T04:00:49;14.93;;;7.68;;
81703;SDS011;71117;52.352;4.808;2023-08-24T04:03:15;15.05;;;8.55;;
81703;SDS011;71117;52.352;4.808;2023-08-24T04:05:41;15.38;;;8.63;;
81703;SDS011;71117;52.352;4.808;2023-08-24T04:08:07;18.83;;;8.65;;
81703;SDS011;71117;52.352;4.808;2023-08-24T04:10:32;18.80;;;9.00;;
81703;SDS011;71117;52.352;4.808;2023-08-24T04:12:58;16.20;;;9.50;;
81703;SDS011;71117;52.352;4.808;2023-08-24T04:15:23;14.95;;;9.60;;
81703;SDS011;71117;52.352;4.808;2023-08-24T04:17:49;14.18;;;8.90;;
81703;SDS011;71117;52.352;4.808;2023-08-24T04:20:14;21.15;;;9.60;;
81703;SDS011;71117;52.352;4.808;2023-08-24T04:22:41;16.92;;;9.30;;
81703;SDS011;71117;52.352;4.808;2023-08-24T04:25:06;19.60;;;9.98;;
81703;SDS011;71117;52.352;4.808;2023-08-24T04:27:32;17.67;;;10.50;;
81703;SDS011;71117;52.352;4.808;2023-08-24T04:29:57;19.92;;;10.48;;
81703;SDS011;71117;52.352;4.808;2023-08-24T04:32:23;20.30;;;9.85;;
81703;SDS011;71117;52.352;4.808;2023-08-24T04:34:49;22.17;;;10.65;;
81703;SDS011;71117;52.352;4.808;2023-08-24T04:37:14;20.98;;;10.73;;
81703;SDS011;71117;52.352;4.808;2023-08-24T04:39:39;16.85;;;9.50;;
81703;SDS011;71117;52.352;4.808;2023-08-24T04:42:05;17.98;;;10.40;;
81703;SDS011;71117;52.352;4.808;2023-08-24T04:44:31;18.17;;;10.50;;
81703;SDS011;71117;52.352;4.808;2023-08-24T04:46:56;19.80;;;10.38;;
81703;SDS011;71117;52.352;4.808;2023-08-24T04:49:22;19.90;;;10.68;;
81703;SDS011;71117;52.352;4.808;2023-08-24T04:51:47;20.42;;;11.10;;
81703;SDS011;71117;52.352;4.808;2023-08-24T04:54:12;19.75;;;10.57;;
81703;SDS011;71117;52.352;4.808;2023-08-24T04:56:38;20.88;;;10.77;;
81703;SDS011;71117;52.352;4.808;2023-08-24T04:59:03;21.42;;;12.13;;
81703;SDS011;71117;52.352;4.808;2023-08-24T05:01:28;24.35;;;11.25;;
81703;SDS011;71117;52.352;4.808;2023-08-24T05:03:56;20.38;;;10.60;;
81703;SDS011;71117;52.352;4.808;2023-08-24T05:06:22;19.10;;;10.88;;
81703;SDS011;71117;52.352;4.808;2023-08-24T05:08:47;20.40;;;11.05;;
81703;SDS011;71117;52.352;4.808;2023-08-24T05:11:18;22.88;;;12.20;;
81703;SDS011;71117;52.352;4.808;2023-08-24T05:13:45;20.33;;;10.75;;
81703;SDS011;71117;52.352;4.808;2023-08-24T05:16:11;20.38;;;10.98;;
81703;SDS011;71117;52.352;4.808;2023-08-24T05:18:37;20.50;;;11.52;;
81703;SDS011;71117;52.352;4.808;2023-08-24T05:21:03;25.10;;;12.10;;
81703;SDS011;71117;52.352;4.808;2023-08-24T05:23:29;17.90;;;10.85;;
81703;SDS011;71117;52.352;4.808;2023-08-24T05:25:58;19.58;;;11.02;;
81703;SDS011;71117;52.352;4.808;2023-08-24T05:28:25;19.60;;;10.55;;
81703;SDS011;71117;52.352;4.808;2023-08-24T05:30:54;18.15;;;10.95;;
81703;SDS011;71117;52.352;4.808;2023-08-24T05:33:20;20.92;;;11.50;;
81703;SDS011;71117;52.352;4.808;2023-08-24T05:35:46;16.02;;;9.63;;
81703;SDS011;71117;52.352;4.808;2023-08-24T05:38:12;17.27;;;11.13;;
81703;SDS011;71117;52.352;4.808;2023-08-24T05:40:39;17.92;;;11.15;;
81703;SDS011;71117;52.352;4.808;2023-08-24T05:43:04;20.80;;;11.73;;
81703;SDS011;71117;52.352;4.808;2023-08-24T05:45:30;15.85;;;9.85;;
81703;SDS011;71117;52.352;4.808;2023-08-24T05:47:55;16.20;;;9.55;;
81703;SDS011;71117;52.352;4.808;2023-08-24T05:50:21;17.15;;;9.27;;
81703;SDS011;71117;52.352;4.808;2023-08-24T05:52:46;15.55;;;9.77;;
81703;SDS011;71117;52.352;4.808;2023-08-24T05:55:11;14.95;;;8.80;;
81703;SDS011;71117;52.352;4.808;2023-08-24T05:57:37;12.88;;;8.18;;
81703;SDS011;71117;52.352;4.808;2023-08-24T06:00:03;12.80;;;8.20;;
81703;SDS011;71117;52.352;4.808;2023-08-24T06:02:34;15.40;;;8.02;;
81703;SDS011;71117;52.352;4.808;2023-08-24T06:05:00;12.82;;;8.80;;
81703;SDS011;71117;52.352;4.808;2023-08-24T06:07:25;13.75;;;10.40;;
81703;SDS011;71117;52.352;4.808;2023-08-24T06:09:51;12.18;;;8.38;;
81703;SDS011;71117;52.352;4.808;2023-08-24T06:12:16;11.98;;;7.53;;
81703;SDS011;71117;52.352;4.808;2023-08-24T06:14:41;11.90;;;7.25;;
81703;SDS011;71117;52.352;4.808;2023-08-24T06:17:07;11.32;;;7.40;;
81703;SDS011;71117;52.352;4.808;2023-08-24T06:19:32;12.43;;;7.60;;
81703;SDS011;71117;52.352;4.808;2023-08-24T06:21:57;9.80;;;7.15;;
81703;SDS011;71117;52.352;4.808;2023-08-24T06:24:23;10.43;;;7.10;;
81703;SDS011;71117;52.352;4.808;2023-08-24T06:26:48;15.65;;;6.90;;
81703;SDS011;71117;52.352;4.808;2023-08-24T06:29:13;10.75;;;7.53;;
81703;SDS011;71117;52.352;4.808;2023-08-24T06:31:39;11.30;;;6.45;;
81703;SDS011;71117;52.352;4.808;2023-08-24T06:34:04;12.30;;;7.50;;
81703;SDS011;71117;52.352;4.808;2023-08-24T06:36:29;17.30;;;7.75;;
81703;SDS011;71117;52.352;4.808;2023-08-24T06:38:54;8.75;;;6.45;;
81703;SDS011;71117;52.352;4.808;2023-08-24T06:41:20;10.65;;;6.38;;
81703;SDS011;71117;52.352;4.808;2023-08-24T06:43:45;9.90;;;6.38;;
81703;SDS011;71117;52.352;4.808;2023-08-24T06:46:10;10.15;;;6.22;;
81703;SDS011;71117;52.352;4.808;2023-08-24T06:48:36;10.23;;;5.25;;
81703;SDS011;71117;52.352;4.808;2023-08-24T06:51:02;8.52;;;5.63;;
81703;SDS011;71117;52.352;4.808;2023-08-24T06:53:28;12.80;;;6.80;;
81703;SDS011;71117;52.352;4.808;2023-08-24T06:55:56;17.17;;;6.95;;
81703;SDS011;71117;52.352;4.808;2023-08-24T06:58:22;9.70;;;6.13;;
81703;SDS011;71117;52.352;4.808;2023-08-24T07:00:48;11.20;;;6.85;;
81703;SDS011;71117;52.352;4.808;2023-08-24T07:03:16;10.68;;;5.60;;
81703;SDS011;71117;52.352;4.808;2023-08-24T07:05:42;11.70;;;5.82;;
81703;SDS011;71117;52.352;4.808;2023-08-24T07:08:08;10.23;;;6.20;;
81703;SDS011;71117;52.352;4.808;2023-08-24T07:10:33;10.40;;;5.55;;
81703;SDS011;71117;52.352;4.808;2023-08-24T07:13:02;11.55;;;6.55;;
81703;SDS011;71117;52.352;4.808;2023-08-24T07:15:27;11.65;;;6.25;;
81703;SDS011;71117;52.352;4.808;2023-08-24T07:17:53;10.27;;;5.72;;
81703;SDS011;71117;52.352;4.808;2023-08-24T07:20:18;9.23;;;6.00;;
81703;SDS011;71117;52.352;4.808;2023-08-24T07:22:44;10.45;;;6.38;;
81703;SDS011;71117;52.352;4.808;2023-08-24T07:25:10;6.82;;;5.85;;
81703;SDS011;71117;52.352;4.808;2023-08-24T07:27:37;9.10;;;6.00;;
81703;SDS011;71117;52.352;4.808;2023-08-24T07:30:02;9.55;;;5.95;;
81703;SDS011;71117;52.352;4.808;2023-08-24T07:32:31;9.70;;;5.93;;
81703;SDS011;71117;52.352;4.808;2023-08-24T07:34:57;9.82;;;6.13;;
81703;SDS011;71117;52.352;4.808;2023-08-24T07:37:24;9.05;;;5.82;;
81703;SDS011;71117;52.352;4.808;2023-08-24T07:39:50;9.82;;;5.80;;
81703;SDS011;71117;52.352;4.808;2023-08-24T07:42:15;8.05;;;5.90;;
81703;SDS011;71117;52.352;4.808;2023-08-24T07:44:41;14.88;;;10.25;;
81703;SDS011;71117;52.352;4.808;2023-08-24T07:47:06;10.25;;;7.78;;
81703;SDS011;71117;52.352;4.808;2023-08-24T07:49:32;15.27;;;6.35;;
81703;SDS011;71117;52.352;4.808;2023-08-24T07:51:57;11.80;;;7.00;;
81703;SDS011;71117;52.352;4.808;2023-08-24T07:54:23;12.68;;;6.93;;
81703;SDS011;71117;52.352;4.808;2023-08-24T07:56:49;12.27;;;6.85;;
81703;SDS011;71117;52.352;4.808;2023-08-24T07:59:15;9.00;;;6.65;;
81703;SDS011;71117;52.352;4.808;2023-08-24T08:01:40;11.23;;;7.18;;
81703;SDS011;71117;52.352;4.808;2023-08-24T08:04:06;10.32;;;7.25;;
81703;SDS011;71117;52.352;4.808;2023-08-24T08:06:31;9.45;;;6.45;;
81703;SDS011;71117;52.352;4.808;2023-08-24T08:08:56;9.38;;;5.78;;
81703;SDS011;71117;52.352;4.808;2023-08-24T08:11:23;9.40;;;6.28;;
81703;SDS011;71117;52.352;4.808;2023-08-24T08:13:48;13.63;;;7.30;;
81703;SDS011;71117;52.352;4.808;2023-08-24T08:16:14;10.48;;;5.97;;
81703;SDS011;71117;52.352;4.808;2023-08-24T08:18:39;10.52;;;7.03;;
81703;SDS011;71117;52.352;4.808;2023-08-24T08:21:14;11.88;;;7.05;;
81703;SDS011;71117;52.352;4.808;2023-08-24T08:23:43;9.52;;;6.13;;
81703;SDS011;71117;52.352;4.808;2023-08-24T08:26:10;11.60;;;6.75;;
81703;SDS011;71117;52.352;4.808;2023-08-24T08:28:36;10.30;;;6.78;;
81703;SDS011;71117;52.352;4.808;2023-08-24T08:31:01;10.30;;;6.47;;
81703;SDS011;71117;52.352;4.808;2023-08-24T08:33:28;12.07;;;7.65;;
81703;SDS011;71117;52.352;4.808;2023-08-24T08:35:53;7.65;;;5.80;;
81703;SDS011;71117;52.352;4.808;2023-08-24T08:38:18;9.05;;;5.70;;
81703;SDS011;71117;52.352;4.808;2023-08-24T08:40:47;10.35;;;5.90;;
81703;SDS011;71117;52.352;4.808;2023-08-24T08:43:15;9.98;;;6.53;;
81703;SDS011;71117;52.352;4.808;2023-08-24T08:45:41;11.23;;;6.47;;
81703;SDS011;71117;52.352;4.808;2023-08-24T08:48:06;14.63;;;8.27;;
81703;SDS011;71117;52.352;4.808;2023-08-24T08:50:34;11.55;;;6.93;;
81703;SDS011;71117;52.352;4.808;2023-08-24T08:53:00;11.77;;;7.25;;
81703;SDS011;71117;52.352;4.808;2023-08-24T08:55:26;11.77;;;7.55;;
81703;SDS011;71117;52.352;4.808;2023-08-24T08:57:53;10.52;;;7.32;;
81703;SDS011;71117;52.352;4.808;2023-08-24T09:00:23;10.38;;;6.78;;
81703;SDS011;71117;52.352;4.808;2023-08-24T09:02:48;11.70;;;5.88;;
81703;SDS011;71117;52.352;4.808;2023-08-24T09:05:17;9.77;;;5.65;;
81703;SDS011;71117;52.352;4.808;2023-08-24T09:07:42;8.60;;;6.35;;
81703;SDS011;71117;52.352;4.808;2023-08-24T09:10:09;11.38;;;6.53;;
81703;SDS011;71117;52.352;4.808;2023-08-24T09:12:34;9.23;;;6.65;;
81703;SDS011;71117;52.352;4.808;2023-08-24T09:15:03;11.05;;;8.25;;
81703;SDS011;71117;52.352;4.808;2023-08-24T09:17:29;12.23;;;8.07;;
81703;SDS011;71117;52.352;4.808;2023-08-24T09:19:58;10.68;;;7.32;;
81703;SDS011;71117;52.352;4.808;2023-08-24T09:22:24;8.85;;;6.45;;
81703;SDS011;71117;52.352;4.808;2023-08-24T09:24:49;12.00;;;8.05;;
81703;SDS011;71117;52.352;4.808;2023-08-24T09:27:19;11.70;;;7.22;;
81703;SDS011;71117;52.352;4.808;2023-08-24T09:29:48;8.82;;;6.50;;
81703;SDS011;71117;52.352;4.808;2023-08-24T09:32:15;11.68;;;7.25;;
81703;SDS011;71117;52.352;4.808;2023-08-24T09:34:40;9.98;;;7.25;;
81703;SDS011;71117;52.352;4.808;2023-08-24T09:37:12;10.43;;;6.93;;
81703;SDS011;71117;52.352;4.808;2023-08-24T09:39:39;11.45;;;8.25;;
81703;SDS011;71117;52.352;4.808;2023-08-24T09:42:05;10.82;;;6.60;;
81703;SDS011;71117;52.352;4.808;2023-08-24T09:44:31;8.77;;;6.65;;
81703;SDS011;71117;52.352;4.808;2023-08-24T09:46:56;7.85;;;6.10;;
81703;SDS011;71117;52.352;4.808;2023-08-24T09:49:21;12.40;;;7.93;;
81703;SDS011;71117;52.352;4.808;2023-08-24T09:51:47;8.40;;;7.22;;
81703;SDS011;71117;52.352;4.808;2023-08-24T09:54:13;10.02;;;7.25;;
81703;SDS011;71117;52.352;4.808;2023-08-24T09:56:41;9.75;;;7.18;;
81703;SDS011;71117;52.352;4.808;2023-08-24T09:59:11;7.55;;;5.95;;
81703;SDS011;71117;52.352;4.808;2023-08-24T10:01:40;9.82;;;6.10;;
81703;SDS011;71117;52.352;4.808;2023-08-24T10:04:07;10.85;;;6.75;;
81703;SDS011;71117;52.352;4.808;2023-08-24T10:06:34;10.02;;;6.80;;
81703;SDS011;71117;52.352;4.808;2023-08-24T10:09:02;9.60;;;6.35;;
81703;SDS011;71117;52.352;4.808;2023-08-24T10:11:30;13.45;;;7.50;;
81703;SDS011;71117;52.352;4.808;2023-08-24T10:14:05;8.48;;;6.60;;
81703;SDS011;71117;52.352;4.808;2023-08-24T10:16:36;13.38;;;8.50;;
81703;SDS011;71117;52.352;4.808;2023-08-24T10:19:02;13.50;;;7.20;;
81703;SDS011;71117;52.352;4.808;2023-08-24T10:21:29;12.65;;;8.13;;
81703;SDS011;71117;52.352;4.808;2023-08-24T10:23:56;13.30;;;8.98;;
81703;SDS011;71117;52.352;4.808;2023-08-24T10:26:22;14.25;;;9.50;;
81703;SDS011;71117;52.352;4.808;2023-08-24T10:28:49;14.10;;;9.52;;
81703;SDS011;71117;52.352;4.808;2023-08-24T10:31:15;14.50;;;9.70;;
81703;SDS011;71117;52.352;4.808;2023-08-24T10:33:41;14.65;;;10.57;;
81703;SDS011;71117;52.352;4.808;2023-08-24T10:36:09;15.65;;;11.27;;
81703;SDS011;71117;52.352;4.808;2023-08-24T10:38:35;18.90;;;11.75;;
81703;SDS011;71117;52.352;4.808;2023-08-24T10:41:08;15.50;;;11.48;;
81703;SDS011;71117;52.352;4.808;2023-08-24T10:43:37;20.00;;;13.05;;
81703;SDS011;71117;52.352;4.808;2023-08-24T10:46:03;18.25;;;13.80;;
81703;SDS011;71117;52.352;4.808;2023-08-24T10:56:20;22.42;;;16.15;;
81703;SDS011;71117;52.352;4.808;2023-08-24T10:58:46;24.00;;;15.70;;
81703;SDS011;71117;52.352;4.808;2023-08-24T11:01:32;24.27;;;17.52;;
81703;SDS011;71117;52.352;4.808;2023-08-24T11:03:57;27.67;;;17.85;;
81703;SDS011;71117;52.352;4.808;2023-08-24T11:06:24;27.38;;;17.80;;
81703;SDS011;71117;52.352;4.808;2023-08-24T11:09:04;26.95;;;18.40;;
81703;SDS011;71117;52.352;4.808;2023-08-24T11:11:39;26.50;;;18.27;;
81703;SDS011;71117;52.352;4.808;2023-08-24T11:14:18;23.25;;;17.90;;
81703;SDS011;71117;52.352;4.808;2023-08-24T11:16:47;22.20;;;16.27;;
81703;SDS011;71117;52.352;4.808;2023-08-24T11:19:14;23.23;;;16.85;;
81703;SDS011;71117;52.352;4.808;2023-08-24T11:21:41;27.75;;;20.42;;
81703;SDS011;71117;52.352;4.808;2023-08-24T11:24:14;23.10;;;18.25;;
81703;SDS011;71117;52.352;4.808;2023-08-24T11:26:44;25.42;;;22.75;;
81703;SDS011;71117;52.352;4.808;2023-08-24T11:29:11;28.75;;;23.10;;
81703;SDS011;71117;52.352;4.808;2023-08-24T11:31:37;25.35;;;22.65;;
81703;SDS011;71117;52.352;4.808;2023-08-24T11:34:03;24.70;;;22.02;;
81703;SDS011;71117;52.352;4.808;2023-08-24T11:36:40;23.13;;;20.63;;
81703;SDS011;71117;52.352;4.808;2023-08-24T11:39:14;28.40;;;22.58;;
81703;SDS011;71117;52.352;4.808;2023-08-24T11:41:45;26.48;;;23.40;;
81703;SDS011;71117;52.352;4.808;2023-08-24T11:44:26;23.80;;;21.27;;
81703;SDS011;71117;52.352;4.808;2023-08-24T11:46:52;26.00;;;22.15;;
81703;SDS011;71117;52.352;4.808;2023-08-24T11:49:18;25.67;;;21.95;;
81703;SDS011;71117;52.352;4.808;2023-08-24T11:51:43;25.95;;;22.35;;
81703;SDS011;71117;52.352;4.808;2023-08-24T11:54:10;27.65;;;24.50;;
81703;SDS011;71117;52.352;4.808;2023-08-24T11:56:42;24.83;;;21.17;;
81703;SDS011;71117;52.352;4.808;2023-08-24T11:59:10;22.13;;;19.52;;
81703;SDS011;71117;52.352;4.808;2023-08-24T12:01:43;18.63;;;15.63;;
81703;SDS011;71117;52.352;4.808;2023-08-24T12:04:10;17.25;;;15.15;;
81703;SDS011;71117;52.352;4.808;2023-08-24T12:06:35;20.75;;;15.98;;
81703;SDS011;71117;52.352;4.808;2023-08-24T12:09:04;16.45;;;14.75;;
81703;SDS011;71117;52.352;4.808;2023-08-24T12:11:34;21.45;;;16.88;;
81703;SDS011;71117;52.352;4.808;2023-08-24T12:14:03;19.42;;;16.50;;
81703;SDS011;71117;52.352;4.808;2023-08-24T12:16:31;21.63;;;15.57;;
81703;SDS011;71117;52.352;4.808;2023-08-24T12:18:58;15.25;;;12.88;;
81703;SDS011;71117;52.352;4.808;2023-08-24T12:21:25;15.75;;;12.80;;
81703;SDS011;71117;52.352;4.808;2023-08-24T12:26:23;13.05;;;9.48;;
81703;SDS011;71117;52.352;4.808;2023-08-24T12:28:52;12.10;;;9.32;;
81703;SDS011;71117;52.352;4.808;2023-08-24T12:31:18;15.40;;;10.70;;
81703;SDS011;71117;52.352;4.808;2023-08-24T12:33:44;15.32;;;11.02;;
81703;SDS011;71117;52.352;4.808;2023-08-24T12:36:10;11.55;;;9.90;;
81703;SDS011;71117;52.352;4.808;2023-08-24T12:38:36;14.95;;;10.65;;
81703;SDS011;71117;52.352;4.808;2023-08-24T12:41:01;11.52;;;8.75;;
81703;SDS011;71117;52.352;4.808;2023-08-24T12:43:27;10.88;;;9.30;;
81703;SDS011;71117;52.352;4.808;2023-08-24T12:45:56;10.00;;;8.25;;
81703;SDS011;71117;52.352;4.808;2023-08-24T12:48:21;10.20;;;9.10;;
81703;SDS011;71117;52.352;4.808;2023-08-24T12:50:46;12.05;;;9.23;;
81703;SDS011;71117;52.352;4.808;2023-08-24T12:53:12;11.32;;;8.15;;
81703;SDS011;71117;52.352;4.808;2023-08-24T12:55:38;9.95;;;8.70;;
81703;SDS011;71117;52.352;4.808;2023-08-24T12:58:08;10.43;;;8.73;;
81703;SDS011;71117;52.352;4.808;2023-08-24T13:00:34;10.38;;;8.85;;
81703;SDS011;71117;52.352;4.808;2023-08-24T13:02:59;14.13;;;9.45;;
81703;SDS011;71117;52.352;4.808;2023-08-24T13:05:24;13.50;;;9.75;;
81703;SDS011;71117;52.352;4.808;2023-08-24T13:07:50;14.48;;;10.10;;
81703;SDS011;71117;52.352;4.808;2023-08-24T13:10:16;11.48;;;10.27;;
81703;SDS011;71117;52.352;4.808;2023-08-24T13:12:41;13.20;;;8.70;;
81703;SDS011;71117;52.352;4.808;2023-08-24T13:15:07;13.60;;;9.15;;
81703;SDS011;71117;52.352;4.808;2023-08-24T13:17:33;11.13;;;8.98;;
81703;SDS011;71117;52.352;4.808;2023-08-24T13:19:58;12.48;;;9.68;;
81703;SDS011;71117;52.352;4.808;2023-08-24T13:22:23;12.57;;;9.27;;
81703;SDS011;71117;52.352;4.808;2023-08-24T13:24:49;13.50;;;8.77;;
81703;SDS011;71117;52.352;4.808;2023-08-24T13:27:14;9.38;;;8.43;;
81703;SDS011;71117;52.352;4.808;2023-08-24T13:29:40;12.43;;;7.47;;
81703;SDS011;71117;52.352;4.808;2023-08-24T13:32:05;10.10;;;8.65;;
81703;SDS011;71117;52.352;4.808;2023-08-24T13:34:31;13.80;;;9.38;;
81703;SDS011;71117;52.352;4.808;2023-08-24T13:36:57;12.70;;;10.02;;
81703;SDS011;71117;52.352;4.808;2023-08-24T13:39:23;13.15;;;9.95;;
81703;SDS011;71117;52.352;4.808;2023-08-24T13:41:50;13.13;;;10.98;;
81703;SDS011;71117;52.352;4.808;2023-08-24T13:44:15;14.52;;;10.25;;
81703;SDS011;71117;52.352;4.808;2023-08-24T13:46:41;14.23;;;10.73;;
81703;SDS011;71117;52.352;4.808;2023-08-24T13:49:06;16.63;;;10.43;;
81703;SDS011;71117;52.352;4.808;2023-08-24T13:51:31;11.65;;;9.35;;
81703;SDS011;71117;52.352;4.808;2023-08-24T13:53:57;11.82;;;9.75;;
81703;SDS011;71117;52.352;4.808;2023-08-24T13:56:22;12.43;;;10.50;;
81703;SDS011;71117;52.352;4.808;2023-08-24T13:58:47;11.82;;;10.32;;
81703;SDS011;71117;52.352;4.808;2023-08-24T14:01:13;10.55;;;9.30;;
81703;SDS011;71117;52.352;4.808;2023-08-24T14:03:39;15.27;;;10.77;;
81703;SDS011;71117;52.352;4.808;2023-08-24T14:06:08;12.40;;;10.18;;
81703;SDS011;71117;52.352;4.808;2023-08-24T14:08:33;14.90;;;9.93;;
81703;SDS011;71117;52.352;4.808;2023-08-24T14:10:58;15.18;;;10.63;;
81703;SDS011;71117;52.352;4.808;2023-08-24T14:13:24;13.52;;;11.82;;
81703;SDS011;71117;52.352;4.808;2023-08-24T14:15:50;14.20;;;11.38;;
81703;SDS011;71117;52.352;4.808;2023-08-24T14:18:15;14.82;;;12.27;;
81703;SDS011;71117;52.352;4.808;2023-08-24T14:20:41;14.40;;;12.02;;
81703;SDS011;71117;52.352;4.808;2023-08-24T14:23:07;17.60;;;12.18;;
81703;SDS011;71117;52.352;4.808;2023-08-24T14:25:32;15.00;;;11.63;;
81703;SDS011;71117;52.352;4.808;2023-08-24T14:27:58;14.45;;;11.93;;
81703;SDS011;71117;52.352;4.808;2023-08-24T14:30:23;13.43;;;11.45;;
81703;SDS011;71117;52.352;4.808;2023-08-24T14:32:48;17.08;;;12.15;;
81703;SDS011;71117;52.352;4.808;2023-08-24T14:35:14;16.42;;;13.05;;
81703;SDS011;71117;52.352;4.808;2023-08-24T14:37:39;14.38;;;12.10;;
81703;SDS011;71117;52.352;4.808;2023-08-24T14:40:06;13.38;;;11.95;;
81703;SDS011;71117;52.352;4.808;2023-08-24T14:42:32;18.05;;;12.75;;
81703;SDS011;71117;52.352;4.808;2023-08-24T14:44:57;16.25;;;11.77;;
81703;SDS011;71117;52.352;4.808;2023-08-24T14:47:22;14.70;;;11.52;;
81703;SDS011;71117;52.352;4.808;2023-08-24T14:49:48;14.48;;;12.40;;